Terminal Aerodrome Forecast
Issued by NWS Mobile, AL

Home | Current Version | Previous Version | Text Only | Print | Product List | Glossary On
Versions: 1 2 3 4 5 6 7 8 9 10 11 12 13 14 15 16 17 18 19 20 21 22
000
FTUS44 KMOB 160500
TAFMOB
TAF
KMOB 160524Z 1606/1706 00000KT P6SM FEW020 SCT200
     FM161500 35005KT P6SM VCSH SCT025 SCT040
     FM161800 33006KT P6SM VCTS SCT040CB BKN150
      TEMPO 1619/1623 4SM TSRA BKN020CB=

USA.gov is the U.S. government's official web portal to all federal, state and local government web resources and services.